Time;durP1;ratioP1;P1;durP2;ratioP2;P2;SDS_P1;SDS_P2;PMS_P1;PMS_P2;Temp;Humidity;BMP_temperature;BMP_pressure;BME280_temperature;BME280_humidity;BME280_pressure;Samples;Min_cycle;Max_cycle;Signal;HPM_P1;HPM_P2
2022/08/12 00:43:43;;;;;;;6.90;2.92;;;17.80;99.90;;;;;;4951016;28;20050;-73
2022/08/12 00:48:53;;;;;;;7.53;3.80;;;17.70;99.90;;;;;;4955264;28;20039;-72
2022/08/12 00:51:20;;;;;;;4.55;2.38;;;17.70;99.90;;;;;;4955060;28;20015;-74
2022/08/12 00:53:46;;;;;;;9.23;3.03;;;17.70;99.90;;;;;;4955673;28;20023;-74
2022/08/12 00:56:12;;;;;;;9.50;3.28;;;17.70;99.90;;;;;;4955061;28;20035;-74
2022/08/12 00:58:45;;;;;;;10.40;3.33;;;17.70;99.90;;;;;;4986021;28;20110;-71
2022/08/12 01:01:13;;;;;;;5.07;2.60;;;17.70;99.90;;;;;;4954855;28;20125;-71
2022/08/12 01:11:55;;;;;;;7.13;2.92;;;17.60;99.90;;;;;;4954926;28;20035;-72
2022/08/12 01:14:23;;;;;;;7.43;3.22;;;17.60;99.90;;;;;;4950131;28;20038;-71
2022/08/12 01:16:54;;;;;;;18.05;3.35;;;17.60;99.90;;;;;;4954254;28;20035;-72
2022/08/12 01:19:21;;;;;;;4.95;2.70;;;17.50;99.90;;;;;;4954425;28;20524;-70
2022/08/12 01:22:33;;;;;;;7.63;2.95;;;17.50;99.90;;;;;;4954443;28;20026;-72
2022/08/12 01:25:11;;;;;;;7.10;3.08;;;17.50;99.90;;;;;;4990891;28;20038;-72
2022/08/12 01:27:39;;;;;;;4.05;2.30;;;17.50;99.90;;;;;;4990726;28;20125;-72
2022/08/12 01:30:08;;;;;;;4.97;2.55;;;17.40;99.90;;;;;;4990842;28;20029;-72
2022/08/12 01:32:37;;;;;;;5.85;2.78;;;17.40;99.90;;;;;;4990767;28;20038;-70
2022/08/12 01:35:16;;;;;;;6.40;3.05;;;17.40;99.90;;;;;;4991231;28;20030;-72
2022/08/12 01:38:05;;;;;;;4.65;2.40;;;17.40;99.90;;;;;;4987796;28;20090;-67
2022/08/12 01:40:34;;;;;;;9.63;2.67;;;17.30;99.90;;;;;;4988928;28;20522;-72
2022/08/12 01:43:06;;;;;;;5.25;2.97;;;17.40;99.90;;;;;;4990498;28;21373;-72
2022/08/12 01:45:34;;;;;;;6.53;2.35;;;17.40;99.90;;;;;;4990621;28;20133;-71
2022/08/12 01:48:52;;;;;;;10.00;3.10;;;17.30;99.90;;;;;;4990383;28;20050;-71
2022/08/12 01:51:25;;;;;;;7.05;2.85;;;17.30;99.90;;;;;;4983352;28;20034;-71
2022/08/12 01:54:05;;;;;;;6.78;3.15;;;17.20;99.90;;;;;;4990319;28;20038;-72
2022/08/12 01:57:06;;;;;;;7.80;3.50;;;17.30;99.90;;;;;;4990230;28;20030;-71
2022/08/12 01:59:55;;;;;;;7.60;4.18;;;17.30;99.90;;;;;;4987782;28;20066;-72
2022/08/12 02:02:31;;;;;;;9.32;4.47;;;17.30;99.90;;;;;;4953741;29;20035;-70
2022/08/12 02:11:34;;;;;;;10.55;3.47;;;17.30;99.90;;;;;;4952158;29;20031;-71
2022/08/12 02:14:24;;;;;;;6.70;3.10;;;17.30;99.90;;;;;;4953702;28;20090;-71
2022/08/12 02:17:20;;;;;;;6.95;3.30;;;17.30;99.90;;;;;;4953709;28;20114;-71
2022/08/12 02:20:24;;;;;;;7.18;3.20;;;17.30;99.90;;;;;;4952070;29;20035;-75
2022/08/12 02:22:51;;;;;;;6.95;2.90;;;17.30;99.90;;;;;;4951732;29;20031;-71
2022/08/12 02:25:37;;;;;;;7.07;3.20;;;17.30;99.90;;;;;;4953251;28;20099;-71
2022/08/12 02:28:03;;;;;;;6.47;2.78;;;17.30;99.90;;;;;;4951953;29;20059;-72
2022/08/12 02:30:31;;;;;;;6.85;2.92;;;17.30;99.90;;;;;;4953114;28;20011;-69
2022/08/12 02:33:00;;;;;;;7.72;2.97;;;17.30;99.90;;;;;;4953716;28;20127;-71
2022/08/12 02:35:30;;;;;;;6.80;3.33;;;17.30;99.90;;;;;;4953136;28;20033;-70
2022/08/12 02:38:03;;;;;;;7.22;3.45;;;17.20;99.90;;;;;;4953236;28;20490;-72
2022/08/12 02:40:30;;;;;;;6.93;3.42;;;17.10;99.90;;;;;;4951696;29;20801;-71
2022/08/12 02:43:20;;;;;;;6.75;3.55;;;21.40;99.90;;;;;;4953142;28;20481;-72
2022/08/12 02:46:15;;;;;;;7.65;3.53;;;17.10;99.90;;;;;;4953397;29;20059;-72
2022/08/12 02:48:51;;;;;;;9.55;3.40;;;17.00;99.90;;;;;;4951204;28;20063;-72
2022/08/12 02:51:19;;;;;;;13.63;3.70;;;17.00;99.90;;;;;;4952877;28;20541;-72
2022/08/12 02:53:49;;;;;;;9.23;4.00;;;16.90;99.90;;;;;;4955227;28;20071;-72
2022/08/12 02:56:16;;;;;;;9.05;3.55;;;16.90;99.90;;;;;;4953206;28;20110;-72
2022/08/12 02:58:45;;;;;;;6.22;3.20;;;17.00;99.90;;;;;;4952446;28;20477;-72
2022/08/12 03:01:12;;;;;;;9.15;3.50;;;16.90;99.90;;;;;;4953155;28;20477;-72
2022/08/12 03:03:40;;;;;;;10.93;3.63;;;16.80;99.90;;;;;;4952739;28;20371;-72
2022/08/12 03:06:16;;;;;;;7.43;3.90;;;17.00;99.90;;;;;;4953018;28;20027;-72
2022/08/12 03:08:43;;;;;;;10.38;3.05;;;16.90;99.90;;;;;;4949334;28;20536;-71
2022/08/12 03:11:15;;;;;;;8.27;3.20;;;16.80;99.90;;;;;;4949106;28;20047;-69
2022/08/12 03:13:49;;;;;;;7.82;3.13;;;16.80;99.90;;;;;;4952393;28;20078;-70
2022/08/12 03:16:16;;;;;;;7.90;3.50;;;16.70;99.90;;;;;;4952154;28;20047;-72
2022/08/12 03:18:43;;;;;;;10.10;3.58;;;16.80;99.90;;;;;;4952363;28;20024;-71
2022/08/12 03:21:12;;;;;;;8.50;3.50;;;16.80;99.90;;;;;;4951953;28;20070;-71
2022/08/12 03:23:41;;;;;;;7.82;3.95;;;;;;;;;;4952774;28;20351;-72
2022/08/12 03:26:07;;;;;;;7.32;3.70;;;16.70;99.90;;;;;;4952708;28;20105;-73
2022/08/12 03:28:49;;;;;;;7.80;4.07;;;;;;;;;;4952071;28;20023;-71
2022/08/12 03:31:23;;;;;;;13.57;3.88;;;16.60;99.90;;;;;;4952591;28;20073;-72
2022/08/12 03:33:50;;;;;;;11.45;4.38;;;16.80;99.90;;;;;;4952167;28;20023;-73
2022/08/12 03:36:19;;;;;;;9.13;3.50;;;16.80;99.90;;;;;;4952383;28;20024;-73
2022/08/12 03:39:17;;;;;;;7.57;3.83;;;16.80;99.90;;;;;;4952151;29;20037;-72
2022/08/12 03:41:53;;;;;;;10.13;4.03;;;16.80;99.90;;;;;;4953741;28;20031;-73
2022/08/12 04:00:57;;;;;;;8.50;4.05;;;18.30;99.90;;;;;;4951445;28;20375;-73
2022/08/12 04:03:57;;;;;;;9.55;4.15;;;18.90;99.90;;;;;;4950666;28;20039;-73
2022/08/12 04:06:17;;;;;;;;;;;19.30;99.90;;;;;;4949424;28;20114;-73
2022/08/12 04:08:43;;;;;;;14.18;6.03;;;19.40;99.90;;;;;;4950601;28;19942;-73
2022/08/12 04:14:03;;;;;;;13.52;4.78;;;19.80;99.90;;;;;;4951188;28;20035;-73
2022/08/12 04:16:29;;;;;;;9.45;4.25;;;20.30;98.70;;;;;;4951374;28;20032;-70
2022/08/12 04:18:55;;;;;;;9.82;4.40;;;20.40;95.40;;;;;;4951447;28;20030;-73
2022/08/12 04:21:21;;;;;;;7.78;4.63;;;21.00;98.60;;;;;;4953972;28;20098;-73
2022/08/12 04:23:48;;;;;;;12.80;5.03;;;21.50;91.40;;;;;;4954685;28;20714;-73
2022/08/12 04:26:13;;;;;;;14.23;4.60;;;21.80;88.00;;;;;;4947692;28;20035;-72
2022/08/12 04:28:39;;;;;;;12.55;5.35;;;21.70;86.30;;;;;;4952032;28;20840;-73
2022/08/12 04:31:05;;;;;;;9.40;4.75;;;21.70;85.80;;;;;;4955344;28;20039;-74
2022/08/12 04:33:31;;;;;;;9.73;4.63;;;;;;;;;;4955155;28;20474;-73
2022/08/12 04:35:57;;;;;;;13.25;5.18;;;22.40;93.80;;;;;;4955107;28;20031;-74
2022/08/12 04:38:24;;;;;;;13.77;5.03;;;23.00;81.30;;;;;;4955162;28;20541;-74
2022/08/12 04:40:51;;;;;;;15.52;4.93;;;23.90;78.90;;;;;;4955295;28;20075;-74
2022/08/12 04:43:17;;;;;;;11.93;4.72;;;24.30;76.40;;;;;;4954239;28;20377;-74
2022/08/12 04:45:43;;;;;;;11.68;4.40;;;24.50;75.70;;;;;;4955193;28;20548;-66
2022/08/12 04:48:08;;;;;;;10.73;5.13;;;24.40;75.60;;;;;;4955043;28;20031;-74
2022/08/12 04:50:34;;;;;;;14.00;5.80;;;24.70;74.90;;;;;;4954735;28;20035;-72
2022/08/12 04:53:01;;;;;;;15.20;6.60;;;25.20;74.40;;;;;;4957743;28;20390;-73
2022/08/12 04:55:27;;;;;;;8.07;4.60;;;25.60;75.00;;;;;;4954466;28;20082;-73
2022/08/12 04:57:54;;;;;;;11.40;4.68;;;25.30;73.60;;;;;;4954819;28;20023;-72
2022/08/12 05:00:20;;;;;;;13.07;4.95;;;24.70;73.60;;;;;;4954493;28;20027;-73
2022/08/12 05:02:46;;;;;;;13.23;5.00;;;24.70;73.90;;;;;;4953830;29;20478;-70
2022/08/12 05:05:21;;;;;;;10.23;4.30;;;24.70;73.90;;;;;;4954792;28;20035;-74
2022/08/12 05:07:48;;;;;;;13.60;4.60;;;24.80;75.30;;;;;;4954445;28;20034;-73
2022/08/12 05:10:15;;;;;;;10.10;3.95;;;24.50;78.30;;;;;;4954416;28;20481;-73
2022/08/12 05:12:44;;;;;;;8.60;3.42;;;23.30;77.10;;;;;;4954576;28;20019;-73
2022/08/12 05:15:14;;;;;;;7.30;3.55;;;22.60;79.60;;;;;;4951266;29;20090;-73
2022/08/12 05:17:41;;;;;;;9.20;3.47;;;22.10;81.80;;;;;;4954445;28;20027;-74
2022/08/12 05:20:09;;;;;;;10.07;4.05;;;21.30;83.80;;;;;;4954576;28;20061;-73
2022/08/12 05:22:36;;;;;;;9.23;3.42;;;21.30;89.70;;;;;;4954200;28;20482;-73
2022/08/12 05:25:02;;;;;;;10.68;3.22;;;21.20;91.50;;;;;;4954535;28;20031;-73
2022/08/12 05:27:28;;;;;;;8.77;3.30;;;21.00;93.10;;;;;;4954453;28;20074;-74
2022/08/12 05:29:54;;;;;;;7.13;3.65;;;21.00;93.30;;;;;;4954169;28;20031;-73
2022/08/12 05:32:20;;;;;;;6.40;3.00;;;21.10;94.00;;;;;;4953965;28;20103;-73
2022/08/12 05:34:47;;;;;;;6.07;2.78;;;21.10;94.00;;;;;;4954242;28;20032;-74
2022/08/12 05:37:13;;;;;;;7.70;3.20;;;21.20;95.50;;;;;;4951081;28;20030;-73
2022/08/12 05:39:40;;;;;;;5.97;2.90;;;21.10;93.80;;;;;;4950746;28;20016;-72
2022/08/12 05:42:07;;;;;;;7.82;3.25;;;21.20;94.40;;;;;;4953959;28;20027;-72
2022/08/12 05:44:33;;;;;;;8.27;3.53;;;21.10;95.00;;;;;;4953811;28;20599;-72
2022/08/12 05:46:59;;;;;;;7.85;2.83;;;21.20;94.10;;;;;;4954073;28;20483;-71
2022/08/12 05:49:25;;;;;;;6.70;3.15;;;21.30;93.50;;;;;;4952511;29;20078;-70
2022/08/12 05:51:51;;;;;;;6.90;3.05;;;21.30;94.80;;;;;;4986633;28;20023;-71
2022/08/12 05:54:17;;;;;;;4.57;2.65;;;21.40;93.60;;;;;;4954878;28;20035;-71
2022/08/12 05:56:44;;;;;;;7.30;3.00;;;21.30;93.50;;;;;;4953569;28;20043;-72
2022/08/12 05:59:11;;;;;;;10.15;3.55;;;21.20;93.80;;;;;;4954149;28;20026;-71
2022/08/12 06:01:37;;;;;;;6.57;2.88;;;21.30;94.20;;;;;;4953933;28;20031;-71
2022/08/12 06:04:03;;;;;;;10.68;4.10;;;21.40;93.60;;;;;;4953876;28;20255;-69
2022/08/12 06:06:40;;;;;;;9.25;3.53;;;21.50;93.60;;;;;;4953453;28;20027;-71
2022/08/12 06:09:09;;;;;;;6.38;3.58;;;21.80;92.80;;;;;;4952786;28;20054;-72
2022/08/12 06:11:36;;;;;;;4.65;2.45;;;21.90;91.70;;;;;;4953145;28;20493;-72
2022/08/12 06:14:02;;;;;;;6.47;2.65;;;21.90;92.00;;;;;;4953130;28;20109;-69
2022/08/12 06:16:31;;;;;;;6.15;2.85;;;22.00;91.40;;;;;;4953576;28;20368;-74
2022/08/12 06:18:57;;;;;;;6.05;2.78;;;22.30;90.30;;;;;;4952762;28;20034;-72
2022/08/12 06:21:23;;;;;;;4.53;2.88;;;22.60;90.10;;;;;;4953471;28;20023;-72
2022/08/12 06:23:50;;;;;;;3.72;2.28;;;22.50;89.70;;;;;;4928966;28;20154;-72
2022/08/12 06:26:19;;;;;;;8.65;2.88;;;22.80;88.70;;;;;;4938219;28;20565;-74
2022/08/12 06:28:50;;;;;;;8.77;2.95;;;22.50;88.30;;;;;;4958968;28;20027;-74
2022/08/12 06:31:18;;;;;;;5.10;2.70;;;22.60;88.30;;;;;;4955386;28;20565;-73
2022/08/12 06:33:46;;;;;;;4.80;2.45;;;22.90;92.10;;;;;;4969782;28;20397;-73
2022/08/12 06:36:15;;;;;;;4.53;1.98;;;23.00;87.20;;;;;;4954724;28;20529;-73
2022/08/12 06:38:42;;;;;;;5.40;2.47;;;23.10;86.70;;;;;;4954441;28;20032;-73
2022/08/12 06:43:53;;;;;;;7.88;2.30;;;23.40;83.30;;;;;;4961528;28;20046;-75
2022/08/12 06:46:21;;;;;;;5.60;2.53;;;23.80;81.00;;;;;;4954974;28;20027;-74
2022/08/12 06:48:48;;;;;;;11.63;3.20;;;23.70;83.00;;;;;;4954144;28;20027;-73
2022/08/12 06:51:16;;;;;;;12.35;2.65;;;23.90;81.20;;;;;;4954528;28;20026;-74
2022/08/12 06:53:43;;;;;;;6.40;2.50;;;24.00;80.00;;;;;;4954466;28;20058;-74
2022/08/12 06:56:09;;;;;;;3.83;2.45;;;24.10;83.90;;;;;;4954541;28;20023;-74
2022/08/12 06:58:37;;;;;;;6.95;3.10;;;24.30;80.00;;;;;;4954529;28;20027;-74
2022/08/12 07:01:03;;;;;;;5.82;2.70;;;24.40;78.50;;;;;;4953822;28;20023;-74
2022/08/12 07:03:29;;;;;;;6.30;2.65;;;24.60;78.60;;;;;;4954476;28;20485;-72
2022/08/12 07:06:00;;;;;;;10.70;3.03;;;24.60;80.00;;;;;;4953530;28;20027;-72
2022/08/12 07:08:32;;;;;;;6.35;2.65;;;25.10;77.20;;;;;;4954361;28;20049;-72
2022/08/12 07:11:01;;;;;;;9.32;3.83;;;24.80;75.20;;;;;;4953798;28;20070;-72
2022/08/12 07:13:34;;;;;;;9.00;3.80;;;25.00;76.40;;;;;;4953630;28;20042;-72
2022/08/12 07:16:01;;;;;;;10.20;3.55;;;25.20;75.90;;;;;;4954150;28;20118;-73
2022/08/12 07:18:36;;;;;;;10.57;4.00;;;25.80;75.50;;;;;;4952973;28;20058;-74
2022/08/12 07:21:04;;;;;;;13.82;5.75;;;25.50;74.20;;;;;;4968888;28;20031;-74
2022/08/12 07:23:35;;;;;;;19.92;5.40;;;25.30;75.60;;;;;;4953912;28;20098;-73
2022/08/12 07:26:05;;;;;;;10.73;4.80;;;25.30;74.50;;;;;;4948696;28;20035;-75
2022/08/12 07:28:34;;;;;;;12.80;3.95;;;25.30;74.50;;;;;;4949244;28;20027;-73
2022/08/12 07:31:03;;;;;;;5.03;3.17;;;25.40;74.80;;;;;;4952964;28;20055;-77
2022/08/12 07:33:30;;;;;;;7.78;3.28;;;25.40;73.90;;;;;;4952650;28;20030;-73
2022/08/12 07:35:58;;;;;;;7.93;2.67;;;25.50;74.90;;;;;;4952941;28;20019;-73
2022/08/12 07:38:26;;;;;;;7.30;2.30;;;25.70;73.50;;;;;;4951564;29;20058;-75
2022/08/12 07:40:54;;;;;;;4.25;2.55;;;25.60;72.80;;;;;;4952592;28;20050;-74
2022/08/12 07:43:20;;;;;;;9.50;2.85;;;25.60;74.30;;;;;;4952980;28;20027;-74
2022/08/12 07:45:46;;;;;;;5.97;2.50;;;26.00;75.50;;;;;;4953343;28;20516;-74
2022/08/12 07:48:12;;;;;;;5.53;2.83;;;26.10;73.30;;;;;;4953117;28;20031;-75
2022/08/12 07:50:38;;;;;;;9.77;3.10;;;26.40;73.00;;;;;;4951430;28;20039;-75
2022/08/12 07:53:04;;;;;;;6.93;3.35;;;26.60;73.10;;;;;;4951405;28;20114;-74
2022/08/12 07:55:29;;;;;;;7.85;2.50;;;27.20;90.90;;;;;;4952338;28;20394;-71
2022/08/12 07:57:58;;;;;;;7.18;3.45;;;27.30;72.50;;;;;;4952273;29;20175;-74
2022/08/12 08:00:30;;;;;;;10.70;3.38;;;27.10;73.50;;;;;;4952642;28;20082;-73
2022/08/12 08:02:57;;;;;;;8.05;3.45;;;26.90;71.90;;;;;;4947948;28;20039;-73
2022/08/12 08:05:27;;;;;;;5.82;2.97;;;27.00;71.70;;;;;;4949312;28;20130;-73
2022/08/12 08:07:59;;;;;;;5.18;2.97;;;27.50;71.30;;;;;;4951124;28;20030;-74
2022/08/12 08:10:26;;;;;;;5.60;2.50;;;27.60;71.10;;;;;;4952542;28;20039;-74
2022/08/12 08:13:03;;;;;;;10.00;3.13;;;27.80;69.80;;;;;;4952206;28;20015;-73
2022/08/12 08:15:30;;;;;;;6.07;3.10;;;27.60;69.70;;;;;;4952377;28;20126;-72
2022/08/12 08:18:02;;;;;;;5.47;2.72;;;27.50;70.30;;;;;;4952631;28;20050;-68
2022/08/12 08:20:32;;;;;;;;;;;27.20;70.70;;;;;;4953170;28;20556;-68
2022/08/12 08:23:04;;;;;;;7.65;3.60;;;27.00;70.00;;;;;;4983885;28;19918;-74
2022/08/12 08:25:30;;;;;;;;;;;27.30;70.90;;;;;;4953089;28;20458;-72
2022/08/12 08:28:04;;;;;;;7.32;2.63;;;27.30;70.50;;;;;;4952618;29;20276;-72
2022/08/12 08:30:32;;;;;;;6.95;3.00;;;27.70;69.70;;;;;;4952973;28;20114;-67
2022/08/12 08:32:58;;;;;;;9.07;2.53;;;27.50;69.30;;;;;;4952593;28;20369;-73
2022/08/12 08:35:25;;;;;;;7.38;2.55;;;27.60;69.00;;;;;;4952536;28;20046;-64
2022/08/12 08:37:51;;;;;;;13.23;2.90;;;27.60;69.00;;;;;;4952528;28;20490;-72
2022/08/12 08:43:03;;;;;;;10.10;2.65;;;28.60;89.70;;;;;;4952461;29;20038;-73
2022/08/12 08:45:30;;;;;;;6.53;2.97;;;28.40;69.70;;;;;;4951716;28;20501;-73
2022/08/12 08:47:58;;;;;;;4.70;2.55;;;28.70;69.80;;;;;;4952785;28;20414;-73
2022/08/12 08:50:23;;;;;;;8.18;2.65;;;28.30;69.90;;;;;;4952556;28;20042;-74
2022/08/12 08:52:49;;;;;;;5.68;2.42;;;28.30;70.80;;;;;;4953070;28;20027;-73
2022/08/12 08:55:16;;;;;;;4.80;2.53;;;28.20;70.20;;;;;;4951088;28;20114;-74
2022/08/12 08:57:46;;;;;;;7.85;2.97;;;28.10;69.80;;;;;;4951151;28;20093;-73
2022/08/12 09:00:15;;;;;;;7.68;3.50;;;28.30;68.70;;;;;;4951053;29;20094;-73
2022/08/12 09:02:41;;;;;;;7.72;3.00;;;28.30;68.20;;;;;;4959346;28;20390;-73
2022/08/12 09:05:07;;;;;;;7.75;2.25;;;28.40;69.00;;;;;;4964460;28;20027;-73
2022/08/12 09:07:43;;;;;;;9.45;2.75;;;28.50;66.40;;;;;;4953185;28;20078;-73
2022/08/12 09:10:11;;;;;;;4.03;2.30;;;28.30;66.10;;;;;;4951935;28;20035;-72
2022/08/12 09:15:24;;;;;;;4.97;2.33;;;27.90;65.70;;;;;;4955874;28;20027;-73
2022/08/12 09:17:54;;;;;;;6.78;2.63;;;28.40;67.50;;;;;;4955659;28;20023;-71
2022/08/12 09:20:29;;;;;;;6.18;2.45;;;28.40;66.60;;;;;;4954699;28;20038;-67
2022/08/12 09:22:56;;;;;;;5.10;2.55;;;28.70;68.60;;;;;;4954439;28;20019;-72
2022/08/12 09:25:26;;;;;;;4.40;2.47;;;29.00;69.90;;;;;;4954508;28;20069;-73
2022/08/12 09:27:54;;;;;;;7.40;2.42;;;29.10;75.50;;;;;;4954323;28;20030;-73
2022/08/12 09:30:21;;;;;;;4.05;2.00;;;29.30;66.70;;;;;;4954595;28;20109;-73
2022/08/12 09:32:51;;;;;;;3.25;2.08;;;28.70;67.20;;;;;;4954033;29;20046;-75
2022/08/12 09:35:19;;;;;;;4.40;2.25;;;29.20;66.40;;;;;;4953532;28;20086;-63
2022/08/12 09:37:49;;;;;;;4.47;2.33;;;29.40;67.00;;;;;;4953860;28;20065;-73
2022/08/12 09:40:17;;;;;;;5.93;2.47;;;29.70;68.60;;;;;;4953842;28;20114;-73
2022/08/12 09:45:30;;;;;;;12.77;2.80;;;;;;;;;;4952953;28;20079;-71
2022/08/12 09:47:58;;;;;;;5.75;2.20;;;;;;;;;;4953724;28;20058;-72
2022/08/12 09:50:25;;;;;;;6.28;2.22;;;29.30;67.50;;;;;;4953217;28;20042;-71
2022/08/12 09:53:24;;;;;;;8.93;2.50;;;29.50;69.20;;;;;;4950093;28;20051;-72
2022/08/12 09:55:57;;;;;;;3.97;2.03;;;29.30;67.40;;;;;;4953077;29;20047;-71
2022/08/12 09:58:28;;;;;;;4.18;1.90;;;29.00;67.80;;;;;;4951234;29;20074;-72
2022/08/12 10:00:56;;;;;;;5.03;1.43;;;29.30;66.80;;;;;;4951352;29;20046;-68
2022/08/12 10:03:26;;;;;;;2.25;1.50;;;29.40;65.60;;;;;;4950904;28;20031;-72
2022/08/12 10:05:52;;;;;;;3.70;1.90;;;29.50;65.80;;;;;;4950521;29;20122;-73
2022/08/12 10:08:20;;;;;;;3.70;1.92;;;29.50;68.20;;;;;;4950811;29;20573;-71
2022/08/12 10:13:42;;;;;;;3.97;2.10;;;29.30;69.00;;;;;;4950631;29;20028;-74
2022/08/12 10:16:10;;;;;;;2.92;1.40;;;29.30;68.60;;;;;;4950791;29;20047;-72
2022/08/12 10:18:37;;;;;;;4.65;1.50;;;;;;;;;;4949852;28;20107;-74
2022/08/12 10:21:08;;;;;;;1.45;1.25;;;29.80;70.70;;;;;;4950812;29;20035;-75
2022/08/12 10:23:35;;;;;;;;;;;29.70;65.90;;;;;;4951373;28;20035;-72
2022/08/12 10:31:31;;;;;;;4.78;1.40;;;29.90;65.90;;;;;;4952373;28;20174;-72
2022/08/12 10:33:57;;;;;;;2.38;1.17;;;29.80;65.20;;;;;;4952888;28;20026;-72
2022/08/12 10:36:23;;;;;;;3.33;1.50;;;29.70;66.80;;;;;;4952763;28;20027;-73
2022/08/12 10:38:50;;;;;;;1.85;1.30;;;29.70;64.80;;;;;;4953426;28;20454;-72
2022/08/12 10:44:04;;;;;;;3.17;1.88;;;29.90;67.20;;;;;;4950863;28;20122;-72
2022/08/12 10:46:30;;;;;;;3.05;1.52;;;29.80;67.00;;;;;;4951561;28;20054;-74
2022/08/12 10:48:56;;;;;;;3.60;2.28;;;29.90;64.00;;;;;;4952946;28;20023;-73
2022/08/12 10:51:22;;;;;;;2.72;1.80;;;30.20;67.00;;;;;;4981512;28;20849;-65
2022/08/12 10:53:49;;;;;;;2.65;1.55;;;29.90;64.70;;;;;;4952409;28;20023;-74
2022/08/12 10:56:16;;;;;;;3.97;1.98;;;;;;;;;;4952577;28;20028;-73
2022/08/12 10:58:43;;;;;;;2.95;2.00;;;30.50;85.90;;;;;;4951892;28;20126;-77
2022/08/12 11:01:11;;;;;;;4.78;1.83;;;30.40;66.50;;;;;;4951426;28;20027;-75
2022/08/12 11:03:38;;;;;;;4.00;1.75;;;30.20;66.60;;;;;;4951215;29;20037;-74
2022/08/12 11:06:10;;;;;;;5.20;2.10;;;30.30;64.00;;;;;;4952137;28;20090;-74
2022/08/12 11:08:40;;;;;;;4.75;2.05;;;30.30;69.20;;;;;;4952201;28;20030;-74
2022/08/12 11:11:08;;;;;;;9.23;2.00;;;30.30;66.80;;;;;;4952768;28;20039;-75
2022/08/12 11:13:37;;;;;;;4.10;2.70;;;30.40;68.30;;;;;;4951651;28;20247;-77
2022/08/12 11:16:05;;;;;;;3.65;2.00;;;30.30;73.00;;;;;;4952012;28;20039;-71
2022/08/12 11:18:31;;;;;;;2.33;1.50;;;30.30;74.30;;;;;;4952250;28;20039;-72
2022/08/12 11:20:58;;;;;;;4.32;2.17;;;30.40;76.70;;;;;;4952282;28;20020;-73
2022/08/12 11:23:24;;;;;;;2.67;1.75;;;30.10;76.80;;;;;;4951946;28;20027;-73
2022/08/12 11:25:51;;;;;;;7.05;2.17;;;;;;;;;;4983504;28;20047;-73
2022/08/12 11:28:17;;;;;;;3.85;1.95;;;30.00;90.80;;;;;;4951897;28;20023;-71
2022/08/12 11:30:44;;;;;;;4.88;2.35;;;;;;;;;;4950746;28;20062;-72
2022/08/12 11:33:11;;;;;;;5.20;2.45;;;31.20;83.40;;;;;;4952048;28;20030;-73
2022/08/12 11:35:40;;;;;;;6.75;2.30;;;31.20;83.20;;;;;;4952736;28;20031;-72
2022/08/12 11:38:06;;;;;;;7.75;2.22;;;30.60;85.20;;;;;;4952769;28;20058;-76
2022/08/12 11:40:32;;;;;;;4.55;2.05;;;30.50;71.80;;;;;;4953006;28;20031;-73
2022/08/12 11:42:59;;;;;;;9.25;2.22;;;30.40;69.20;;;;;;4953055;29;20028;-73
2022/08/12 11:45:26;;;;;;;4.38;2.33;;;30.60;67.10;;;;;;4952644;28;20066;-71
2022/08/12 11:47:54;;;;;;;7.50;2.08;;;30.50;67.70;;;;;;4952569;28;20027;-68
2022/08/12 11:50:21;;;;;;;4.38;2.47;;;30.50;68.10;;;;;;4953111;28;20118;-69
2022/08/12 11:52:48;;;;;;;4.40;2.20;;;30.50;70.00;;;;;;4952813;28;20015;-72
2022/08/12 11:55:14;;;;;;;5.68;2.25;;;30.40;66.80;;;;;;4953186;28;20042;-70
2022/08/12 11:57:50;;;;;;;5.70;2.28;;;30.50;70.40;;;;;;4952547;28;20015;-72
2022/08/12 12:00:17;;;;;;;4.18;2.72;;;30.40;68.70;;;;;;4952863;28;20573;-66
2022/08/12 12:02:43;;;;;;;5.15;2.33;;;30.50;69.50;;;;;;4952223;28;20500;-70
2022/08/12 12:05:09;;;;;;;2.58;1.98;;;30.40;81.10;;;;;;4952164;28;20110;-72
2022/08/12 12:07:42;;;;;;;3.88;2.03;;;30.20;64.20;;;;;;4952683;28;20026;-71
2022/08/12 12:10:12;;;;;;;3.50;2.15;;;30.10;65.10;;;;;;4952799;28;20379;-67
2022/08/12 12:12:39;;;;;;;6.57;2.58;;;30.20;66.90;;;;;;4952625;28;20073;-70
2022/08/12 12:15:06;;;;;;;5.80;2.40;;;30.20;68.10;;;;;;4950830;28;20052;-74
2022/08/12 12:17:37;;;;;;;6.32;2.72;;;30.30;65.70;;;;;;4952013;28;20386;-73
2022/08/12 12:20:07;;;;;;;8.53;2.37;;;30.40;67.40;;;;;;4951290;28;20102;-69
2022/08/12 12:22:33;;;;;;;4.25;2.00;;;30.30;65.60;;;;;;4948447;28;20031;-73
2022/08/12 12:24:58;;;;;;;2.60;1.70;;;30.30;71.70;;;;;;4952848;28;20374;-72
2022/08/12 12:27:25;;;;;;;5.20;2.08;;;30.20;75.20;;;;;;4950828;28;20689;-76
2022/08/12 12:29:50;;;;;;;8.27;3.03;;;30.00;65.10;;;;;;4950329;28;20629;-74
2022/08/12 12:32:17;;;;;;;3.97;2.50;;;29.80;65.70;;;;;;4950691;28;20027;-74
2022/08/12 12:34:43;;;;;;;4.82;2.20;;;29.70;64.70;;;;;;4951237;28;20066;-74
2022/08/12 12:37:12;;;;;;;2.28;1.95;;;30.10;64.60;;;;;;4951179;28;20070;-75
2022/08/12 12:39:39;;;;;;;10.10;2.25;;;30.20;67.40;;;;;;4951972;28;20034;-64
2022/08/12 12:42:05;;;;;;;6.82;2.45;;;30.10;67.00;;;;;;4954136;28;20067;-73
2022/08/12 12:44:32;;;;;;;8.23;2.97;;;30.30;66.10;;;;;;4955401;28;20048;-72
2022/08/12 12:46:58;;;;;;;5.88;2.58;;;30.10;68.00;;;;;;4956165;28;20106;-72
2022/08/12 12:49:23;;;;;;;7.70;2.88;;;30.20;71.80;;;;;;4955638;29;20443;-75
2022/08/12 12:51:50;;;;;;;5.07;2.63;;;30.40;66.90;;;;;;4955848;28;20027;-72
2022/08/12 12:54:15;;;;;;;4.45;2.53;;;30.30;66.80;;;;;;4954293;28;20019;-71
2022/08/12 12:56:48;;;;;;;4.93;2.80;;;30.30;66.30;;;;;;4954719;28;20054;-70
2022/08/12 12:59:17;;;;;;;9.65;2.33;;;30.40;64.70;;;;;;4955428;28;20179;-67
2022/08/12 13:01:43;;;;;;;5.70;2.72;;;30.40;67.50;;;;;;4955473;28;20102;-66
2022/08/12 13:04:10;;;;;;;3.17;2.38;;;30.50;66.30;;;;;;4955076;28;20114;-69
2022/08/12 13:06:38;;;;;;;10.32;2.72;;;30.70;65.40;;;;;;4953933;28;20027;-74
2022/08/12 13:09:04;;;;;;;6.63;2.47;;;30.70;65.80;;;;;;4953400;28;20039;-73
2022/08/12 13:11:31;;;;;;;3.58;2.30;;;30.70;77.00;;;;;;4952298;28;20328;-72
2022/08/12 13:13:56;;;;;;;5.15;2.60;;;30.60;66.40;;;;;;4952737;28;20564;-76
2022/08/12 13:16:28;;;;;;;6.55;2.38;;;30.60;65.40;;;;;;4953034;28;20072;-73
2022/08/12 13:18:55;;;;;;;4.85;2.55;;;30.80;66.50;;;;;;4953444;28;20114;-70
2022/08/12 13:21:21;;;;;;;8.25;2.30;;;30.70;66.70;;;;;;4952973;28;20497;-73
2022/08/12 13:23:48;;;;;;;3.75;2.30;;;30.40;68.30;;;;;;4953196;28;20035;-72
2022/08/12 13:26:16;;;;;;;4.70;2.15;;;30.50;65.80;;;;;;4953459;28;20077;-73
2022/08/12 13:28:49;;;;;;;7.72;2.88;;;30.60;67.20;;;;;;4953091;28;20505;-65
2022/08/12 13:31:15;;;;;;;3.88;2.20;;;30.70;72.70;;;;;;4983537;28;20066;-73
2022/08/12 13:33:41;;;;;;;7.25;2.30;;;30.60;66.00;;;;;;4952293;28;20113;-67
2022/08/12 13:36:09;;;;;;;8.63;2.20;;;30.60;63.70;;;;;;4952887;28;20023;-67
2022/08/12 13:38:37;;;;;;;5.30;2.50;;;30.50;69.90;;;;;;4953033;28;20374;-74
2022/08/12 13:41:05;;;;;;;4.35;2.40;;;30.50;70.70;;;;;;4952269;28;20035;-75
2022/08/12 13:43:32;;;;;;;6.25;2.67;;;30.60;71.00;;;;;;4951880;28;20146;-71
2022/08/12 13:45:59;;;;;;;5.18;2.25;;;30.50;69.50;;;;;;4949734;29;20042;-66
2022/08/12 13:48:24;;;;;;;4.75;2.47;;;30.40;68.00;;;;;;4952037;28;20600;-68
2022/08/12 13:50:51;;;;;;;4.50;2.22;;;30.50;68.50;;;;;;4951885;28;20117;-74
2022/08/12 13:53:18;;;;;;;3.40;2.67;;;30.30;65.90;;;;;;4952093;28;20036;-76
2022/08/12 13:55:48;;;;;;;3.42;2.33;;;30.40;67.30;;;;;;4952685;28;20035;-65
2022/08/12 13:58:19;;;;;;;4.57;2.75;;;30.30;67.00;;;;;;4951332;29;20023;-74
2022/08/12 14:00:50;;;;;;;5.77;2.40;;;30.30;66.60;;;;;;4953654;28;20078;-76
2022/08/12 14:03:20;;;;;;;3.22;2.42;;;30.20;66.80;;;;;;4952724;28;20129;-73
2022/08/12 14:05:46;;;;;;;6.37;2.53;;;30.20;65.20;;;;;;4951886;28;20050;-74
2022/08/12 14:08:14;;;;;;;6.28;2.47;;;30.20;65.30;;;;;;4952678;28;20039;-77
2022/08/12 14:10:50;;;;;;;4.10;2.42;;;30.10;65.90;;;;;;4953059;28;20043;-69
2022/08/12 14:13:17;;;;;;;6.13;2.80;;;30.10;69.20;;;;;;4952642;28;20031;-73
2022/08/12 14:15:49;;;;;;;5.25;2.63;;;30.10;66.60;;;;;;4952032;28;20041;-76
2022/08/12 14:18:19;;;;;;;5.43;2.42;;;30.00;64.50;;;;;;4952426;28;20397;-76
2022/08/12 14:20:49;;;;;;;5.97;2.53;;;30.00;63.60;;;;;;4953366;29;20082;-77
2022/08/12 14:23:17;;;;;;;4.30;2.40;;;30.00;64.80;;;;;;4953062;28;20035;-77
2022/08/12 14:25:43;;;;;;;3.65;2.45;;;30.00;66.90;;;;;;4952695;28;20019;-77
2022/08/12 14:28:15;;;;;;;6.45;2.42;;;30.00;64.10;;;;;;4952679;28;20038;-71
2022/08/12 14:31:01;;;;;;;2.88;2.30;;;30.00;68.20;;;;;;4952564;28;20046;-77
2022/08/12 14:33:30;;;;;;;5.55;2.45;;;29.90;66.70;;;;;;4953144;28;20035;-72
2022/08/12 14:35:57;;;;;;;5.72;2.60;;;29.80;67.60;;;;;;4952309;28;20106;-76
2022/08/12 14:38:38;;;;;;;4.65;2.17;;;29.80;68.40;;;;;;4952082;28;20106;-74
2022/08/12 14:41:12;;;;;;;5.22;2.58;;;29.80;64.30;;;;;;4951553;28;20114;-70